sensor_id;sensor_type;location;lat;lon;timestamp;temperature;humidity
39401;DHT22;54391;50.000;7.360;2023-07-31T00:00:39;16.60;9.00
39401;DHT22;54391;50.000;7.360;2023-07-31T00:03:06;16.60;9.30
39401;DHT22;54391;50.000;7.360;2023-07-31T00:05:33;16.60;8.40
39401;DHT22;54391;50.000;7.360;2023-07-31T00:08:01;16.70;8.80
39401;DHT22;54391;50.000;7.360;2023-07-31T00:10:29;16.60;8.60
39401;DHT22;54391;50.000;7.360;2023-07-31T00:12:56;16.60;9.00
39401;DHT22;54391;50.000;7.360;2023-07-31T00:15:24;16.70;8.80
39401;DHT22;54391;50.000;7.360;2023-07-31T00:17:51;16.60;10.80
39401;DHT22;54391;50.000;7.360;2023-07-31T00:20:18;16.50;11.70
39401;DHT22;54391;50.000;7.360;2023-07-31T00:22:45;16.50;12.30
39401;DHT22;54391;50.000;7.360;2023-07-31T00:25:13;16.40;13.30
39401;DHT22;54391;50.000;7.360;2023-07-31T00:27:41;16.40;14.50
39401;DHT22;54391;50.000;7.360;2023-07-31T00:30:12;16.20;16.40
39401;DHT22;54391;50.000;7.360;2023-07-31T00:32:39;16.10;18.30
39401;DHT22;54391;50.000;7.360;2023-07-31T00:35:06;15.90;19.90
39401;DHT22;54391;50.000;7.360;2023-07-31T00:37:34;15.90;20.50
39401;DHT22;54391;50.000;7.360;2023-07-31T00:40:01;15.80;21.50
39401;DHT22;54391;50.000;7.360;2023-07-31T00:42:29;15.80;21.80
39401;DHT22;54391;50.000;7.360;2023-07-31T00:44:58;15.80;21.60
39401;DHT22;54391;50.000;7.360;2023-07-31T00:47:26;15.90;22.20
39401;DHT22;54391;50.000;7.360;2023-07-31T00:49:53;15.80;22.10
39401;DHT22;54391;50.000;7.360;2023-07-31T00:52:20;15.80;22.60
39401;DHT22;54391;50.000;7.360;2023-07-31T00:54:49;15.80;21.80
39401;DHT22;54391;50.000;7.360;2023-07-31T00:57:16;15.80;22.20
39401;DHT22;54391;50.000;7.360;2023-07-31T00:59:43;15.80;22.30
39401;DHT22;54391;50.000;7.360;2023-07-31T01:02:13;15.80;22.10
39401;DHT22;54391;50.000;7.360;2023-07-31T01:04:42;15.90;21.60
39401;DHT22;54391;50.000;7.360;2023-07-31T01:07:16;15.90;21.90
39401;DHT22;54391;50.000;7.360;2023-07-31T01:09:52;15.90;21.40
39401;DHT22;54391;50.000;7.360;2023-07-31T01:12:27;16.00;21.00
39401;DHT22;54391;50.000;7.360;2023-07-31T01:15:03;16.00;20.00
39401;DHT22;54391;50.000;7.360;2023-07-31T01:17:31;16.00;20.50
39401;DHT22;54391;50.000;7.360;2023-07-31T01:20:01;16.00;21.50
39401;DHT22;54391;50.000;7.360;2023-07-31T01:25:59;15.60;29.80
39401;DHT22;54391;50.000;7.360;2023-07-31T01:28:35;15.50;33.00
39401;DHT22;54391;50.000;7.360;2023-07-31T01:31:07;15.20;42.10
39401;DHT22;54391;50.000;7.360;2023-07-31T01:33:38;15.00;49.50
39401;DHT22;54391;50.000;7.360;2023-07-31T01:36:06;14.70;55.90
39401;DHT22;54391;50.000;7.360;2023-07-31T01:38:33;14.70;58.00
39401;DHT22;54391;50.000;7.360;2023-07-31T01:41:03;14.50;62.20
39401;DHT22;54391;50.000;7.360;2023-07-31T01:43:30;14.40;65.60
39401;DHT22;54391;50.000;7.360;2023-07-31T01:45:57;14.40;67.50
39401;DHT22;54391;50.000;7.360;2023-07-31T01:48:25;14.40;68.80
39401;DHT22;54391;50.000;7.360;2023-07-31T01:50:52;14.40;68.40
39401;DHT22;54391;50.000;7.360;2023-07-31T01:53:19;14.40;67.60
39401;DHT22;54391;50.000;7.360;2023-07-31T01:55:46;14.40;67.60
39401;DHT22;54391;50.000;7.360;2023-07-31T01:58:15;14.50;68.50
39401;DHT22;54391;50.000;7.360;2023-07-31T02:00:42;14.50;68.60
39401;DHT22;54391;50.000;7.360;2023-07-31T02:03:09;14.50;67.50
39401;DHT22;54391;50.000;7.360;2023-07-31T02:05:39;14.60;66.70
39401;DHT22;54391;50.000;7.360;2023-07-31T02:08:10;14.60;67.00
39401;DHT22;54391;50.000;7.360;2023-07-31T02:10:37;14.60;65.20
39401;DHT22;54391;50.000;7.360;2023-07-31T02:13:05;14.60;64.50
39401;DHT22;54391;50.000;7.360;2023-07-31T02:15:34;14.60;63.40
39401;DHT22;54391;50.000;7.360;2023-07-31T02:18:01;14.70;64.80
39401;DHT22;54391;50.000;7.360;2023-07-31T02:20:28;14.60;63.40
39401;DHT22;54391;50.000;7.360;2023-07-31T02:22:56;14.60;64.00
39401;DHT22;54391;50.000;7.360;2023-07-31T02:25:23;14.70;62.00
39401;DHT22;54391;50.000;7.360;2023-07-31T02:27:50;14.70;62.10
39401;DHT22;54391;50.000;7.360;2023-07-31T02:30:17;14.70;61.30
39401;DHT22;54391;50.000;7.360;2023-07-31T02:32:46;14.70;59.10
39401;DHT22;54391;50.000;7.360;2023-07-31T02:35:14;14.80;56.70
39401;DHT22;54391;50.000;7.360;2023-07-31T02:37:41;14.80;58.00
39401;DHT22;54391;50.000;7.360;2023-07-31T02:40:09;14.80;57.40
39401;DHT22;54391;50.000;7.360;2023-07-31T02:42:36;14.80;57.40
39401;DHT22;54391;50.000;7.360;2023-07-31T02:45:05;14.80;61.10
39401;DHT22;54391;50.000;7.360;2023-07-31T02:47:32;14.70;63.60
39401;DHT22;54391;50.000;7.360;2023-07-31T02:50:01;14.70;65.10
39401;DHT22;54391;50.000;7.360;2023-07-31T02:52:28;14.60;67.80
39401;DHT22;54391;50.000;7.360;2023-07-31T02:54:55;14.50;70.00
39401;DHT22;54391;50.000;7.360;2023-07-31T02:57:22;14.50;70.60
39401;DHT22;54391;50.000;7.360;2023-07-31T02:59:50;14.50;71.40
39401;DHT22;54391;50.000;7.360;2023-07-31T03:02:17;14.50;72.10
39401;DHT22;54391;50.000;7.360;2023-07-31T03:04:44;14.60;71.80
39401;DHT22;54391;50.000;7.360;2023-07-31T03:07:13;14.60;73.20
39401;DHT22;54391;50.000;7.360;2023-07-31T03:09:40;14.50;71.90
39401;DHT22;54391;50.000;7.360;2023-07-31T03:12:08;14.60;72.50
39401;DHT22;54391;50.000;7.360;2023-07-31T03:14:36;14.60;71.10
39401;DHT22;54391;50.000;7.360;2023-07-31T03:17:03;14.60;71.90
39401;DHT22;54391;50.000;7.360;2023-07-31T03:19:31;14.60;72.60
39401;DHT22;54391;50.000;7.360;2023-07-31T03:21:58;14.60;72.70
39401;DHT22;54391;50.000;7.360;2023-07-31T03:24:29;14.70;71.60
39401;DHT22;54391;50.000;7.360;2023-07-31T03:26:57;14.60;72.20
39401;DHT22;54391;50.000;7.360;2023-07-31T03:29:24;14.70;71.50
39401;DHT22;54391;50.000;7.360;2023-07-31T03:31:52;14.70;69.40
39401;DHT22;54391;50.000;7.360;2023-07-31T03:34:19;14.70;70.10
39401;DHT22;54391;50.000;7.360;2023-07-31T03:36:46;14.70;69.00
39401;DHT22;54391;50.000;7.360;2023-07-31T03:39:13;14.80;68.30
39401;DHT22;54391;50.000;7.360;2023-07-31T03:41:42;14.80;68.30
39401;DHT22;54391;50.000;7.360;2023-07-31T03:44:09;14.80;66.90
39401;DHT22;54391;50.000;7.360;2023-07-31T03:46:36;14.70;65.80
39401;DHT22;54391;50.000;7.360;2023-07-31T03:49:04;14.80;65.30
39401;DHT22;54391;50.000;7.360;2023-07-31T03:51:31;14.80;63.80
39401;DHT22;54391;50.000;7.360;2023-07-31T03:53:58;14.80;62.60
39401;DHT22;54391;50.000;7.360;2023-07-31T03:56:25;14.80;60.20
39401;DHT22;54391;50.000;7.360;2023-07-31T03:58:54;14.80;60.00
39401;DHT22;54391;50.000;7.360;2023-07-31T04:01:21;14.90;59.00
39401;DHT22;54391;50.000;7.360;2023-07-31T04:03:49;14.80;56.10
39401;DHT22;54391;50.000;7.360;2023-07-31T04:06:16;14.90;55.20
39401;DHT22;54391;50.000;7.360;2023-07-31T04:08:44;14.90;54.80
39401;DHT22;54391;50.000;7.360;2023-07-31T04:11:11;14.90;52.80
39401;DHT22;54391;50.000;7.360;2023-07-31T04:13:39;14.90;52.70
39401;DHT22;54391;50.000;7.360;2023-07-31T04:16:07;15.00;51.00
39401;DHT22;54391;50.000;7.360;2023-07-31T04:18:35;15.00;51.10
39401;DHT22;54391;50.000;7.360;2023-07-31T04:21:02;15.00;51.30
39401;DHT22;54391;50.000;7.360;2023-07-31T04:23:29;14.90;50.20
39401;DHT22;54391;50.000;7.360;2023-07-31T04:25:57;15.00;48.70
39401;DHT22;54391;50.000;7.360;2023-07-31T04:28:24;15.00;48.70
39401;DHT22;54391;50.000;7.360;2023-07-31T04:30:51;15.00;47.70
39401;DHT22;54391;50.000;7.360;2023-07-31T04:33:20;15.10;48.10
39401;DHT22;54391;50.000;7.360;2023-07-31T04:35:51;15.10;45.90
39401;DHT22;54391;50.000;7.360;2023-07-31T04:38:18;15.10;47.10
39401;DHT22;54391;50.000;7.360;2023-07-31T04:40:47;15.20;46.30
39401;DHT22;54391;50.000;7.360;2023-07-31T04:43:14;15.10;46.40
39401;DHT22;54391;50.000;7.360;2023-07-31T04:45:44;15.10;45.10
39401;DHT22;54391;50.000;7.360;2023-07-31T04:48:12;15.10;45.40
39401;DHT22;54391;50.000;7.360;2023-07-31T04:50:41;15.10;45.10
39401;DHT22;54391;50.000;7.360;2023-07-31T04:53:08;15.20;44.90
39401;DHT22;54391;50.000;7.360;2023-07-31T04:55:35;15.30;44.10
39401;DHT22;54391;50.000;7.360;2023-07-31T04:58:03;15.20;43.60
39401;DHT22;54391;50.000;7.360;2023-07-31T05:00:30;15.20;43.60
39401;DHT22;54391;50.000;7.360;2023-07-31T05:02:57;15.30;43.90
39401;DHT22;54391;50.000;7.360;2023-07-31T05:05:24;15.30;42.90
39401;DHT22;54391;50.000;7.360;2023-07-31T05:07:53;15.30;43.50
39401;DHT22;54391;50.000;7.360;2023-07-31T05:10:20;15.30;42.40
39401;DHT22;54391;50.000;7.360;2023-07-31T05:12:47;15.40;42.90
39401;DHT22;54391;50.000;7.360;2023-07-31T05:15:15;15.40;40.90
39401;DHT22;54391;50.000;7.360;2023-07-31T05:17:42;15.40;40.90
39401;DHT22;54391;50.000;7.360;2023-07-31T05:20:10;15.50;41.60
39401;DHT22;54391;50.000;7.360;2023-07-31T05:22:37;15.50;41.10
39401;DHT22;54391;50.000;7.360;2023-07-31T05:25:07;15.50;39.40
39401;DHT22;54391;50.000;7.360;2023-07-31T05:27:34;15.50;39.60
39401;DHT22;54391;50.000;7.360;2023-07-31T05:30:01;15.50;38.90
39401;DHT22;54391;50.000;7.360;2023-07-31T05:32:29;15.60;38.30
39401;DHT22;54391;50.000;7.360;2023-07-31T05:34:56;15.60;37.10
39401;DHT22;54391;50.000;7.360;2023-07-31T05:37:23;15.60;37.20
39401;DHT22;54391;50.000;7.360;2023-07-31T05:39:51;15.70;36.60
39401;DHT22;54391;50.000;7.360;2023-07-31T05:42:19;15.70;36.20
39401;DHT22;54391;50.000;7.360;2023-07-31T05:44:47;15.70;35.10
39401;DHT22;54391;50.000;7.360;2023-07-31T05:47:14;15.70;35.70
39401;DHT22;54391;50.000;7.360;2023-07-31T05:49:42;15.70;35.60
39401;DHT22;54391;50.000;7.360;2023-07-31T05:52:09;15.70;34.90
39401;DHT22;54391;50.000;7.360;2023-07-31T05:54:36;15.70;34.50
39401;DHT22;54391;50.000;7.360;2023-07-31T05:57:04;15.70;35.20
39401;DHT22;54391;50.000;7.360;2023-07-31T05:59:33;15.70;34.70
39401;DHT22;54391;50.000;7.360;2023-07-31T06:02:00;15.70;34.60
39401;DHT22;54391;50.000;7.360;2023-07-31T06:04:27;15.80;33.80
39401;DHT22;54391;50.000;7.360;2023-07-31T06:06:55;15.70;34.40
39401;DHT22;54391;50.000;7.360;2023-07-31T06:09:22;15.80;33.90
39401;DHT22;54391;50.000;7.360;2023-07-31T06:11:49;15.90;33.30
39401;DHT22;54391;50.000;7.360;2023-07-31T06:14:17;15.90;33.20
39401;DHT22;54391;50.000;7.360;2023-07-31T06:16:45;15.90;32.50
39401;DHT22;54391;50.000;7.360;2023-07-31T06:19:12;15.90;32.70
39401;DHT22;54391;50.000;7.360;2023-07-31T06:21:40;15.90;32.80
39401;DHT22;54391;50.000;7.360;2023-07-31T06:24:08;15.90;33.30
39401;DHT22;54391;50.000;7.360;2023-07-31T06:26:35;15.90;32.30
39401;DHT22;54391;50.000;7.360;2023-07-31T06:29:03;16.10;32.80
39401;DHT22;54391;50.000;7.360;2023-07-31T06:31:31;16.10;32.70
39401;DHT22;54391;50.000;7.360;2023-07-31T06:34:00;16.20;31.80
39401;DHT22;54391;50.000;7.360;2023-07-31T06:36:27;16.20;31.50
39401;DHT22;54391;50.000;7.360;2023-07-31T06:38:54;16.30;31.30
39401;DHT22;54391;50.000;7.360;2023-07-31T06:41:21;16.30;30.50
39401;DHT22;54391;50.000;7.360;2023-07-31T06:43:48;16.20;30.70
39401;DHT22;54391;50.000;7.360;2023-07-31T06:46:16;16.30;30.40
39401;DHT22;54391;50.000;7.360;2023-07-31T06:48:43;16.40;31.20
39401;DHT22;54391;50.000;7.360;2023-07-31T06:51:12;16.40;30.70
39401;DHT22;54391;50.000;7.360;2023-07-31T06:53:39;16.40;30.10
39401;DHT22;54391;50.000;7.360;2023-07-31T06:56:07;16.30;29.60
39401;DHT22;54391;50.000;7.360;2023-07-31T06:58:34;16.40;30.50
39401;DHT22;54391;50.000;7.360;2023-07-31T07:01:01;16.40;30.20
39401;DHT22;54391;50.000;7.360;2023-07-31T07:03:29;16.30;30.20
39401;DHT22;54391;50.000;7.360;2023-07-31T07:05:56;16.50;29.30
39401;DHT22;54391;50.000;7.360;2023-07-31T07:08:25;16.60;30.10
39401;DHT22;54391;50.000;7.360;2023-07-31T07:10:52;16.70;28.60
39401;DHT22;54391;50.000;7.360;2023-07-31T07:13:20;16.80;28.00
39401;DHT22;54391;50.000;7.360;2023-07-31T07:15:48;16.70;26.70
39401;DHT22;54391;50.000;7.360;2023-07-31T07:18:16;16.70;28.40
39401;DHT22;54391;50.000;7.360;2023-07-31T07:20:46;16.80;28.50
39401;DHT22;54391;50.000;7.360;2023-07-31T07:23:14;16.90;27.40
39401;DHT22;54391;50.000;7.360;2023-07-31T07:25:43;17.60;22.70
39401;DHT22;54391;50.000;7.360;2023-07-31T07:28:11;17.80;21.50
39401;DHT22;54391;50.000;7.360;2023-07-31T07:30:38;18.00;20.50
39401;DHT22;54391;50.000;7.360;2023-07-31T07:33:05;17.90;19.50
39401;DHT22;54391;50.000;7.360;2023-07-31T07:35:33;18.00;18.30
39401;DHT22;54391;50.000;7.360;2023-07-31T07:38:02;18.10;18.80
39401;DHT22;54391;50.000;7.360;2023-07-31T07:40:30;18.10;18.00
39401;DHT22;54391;50.000;7.360;2023-07-31T07:42:58;18.00;17.50
39401;DHT22;54391;50.000;7.360;2023-07-31T07:45:26;17.60;18.90
39401;DHT22;54391;50.000;7.360;2023-07-31T07:47:53;17.60;20.00
39401;DHT22;54391;50.000;7.360;2023-07-31T07:50:21;17.60;20.00
39401;DHT22;54391;50.000;7.360;2023-07-31T07:52:48;17.40;20.90
39401;DHT22;54391;50.000;7.360;2023-07-31T07:55:15;17.20;20.00
39401;DHT22;54391;50.000;7.360;2023-07-31T07:57:43;17.20;21.50
39401;DHT22;54391;50.000;7.360;2023-07-31T08:00:13;17.10;20.70
39401;DHT22;54391;50.000;7.360;2023-07-31T08:02:40;17.10;20.90
39401;DHT22;54391;50.000;7.360;2023-07-31T08:05:08;17.20;20.00
39401;DHT22;54391;50.000;7.360;2023-07-31T08:07:35;17.20;20.20
39401;DHT22;54391;50.000;7.360;2023-07-31T08:10:02;17.40;18.70
39401;DHT22;54391;50.000;7.360;2023-07-31T08:12:30;17.50;18.80
39401;DHT22;54391;50.000;7.360;2023-07-31T08:14:57;18.10;16.30
39401;DHT22;54391;50.000;7.360;2023-07-31T08:17:27;18.10;15.60
39401;DHT22;54391;50.000;7.360;2023-07-31T08:19:54;18.20;15.50
39401;DHT22;54391;50.000;7.360;2023-07-31T08:22:24;18.00;14.80
39401;DHT22;54391;50.000;7.360;2023-07-31T08:24:51;17.70;15.90
39401;DHT22;54391;50.000;7.360;2023-07-31T08:27:19;17.70;16.00
39401;DHT22;54391;50.000;7.360;2023-07-31T08:29:46;17.70;16.00
39401;DHT22;54391;50.000;7.360;2023-07-31T08:32:13;17.70;15.30
39401;DHT22;54391;50.000;7.360;2023-07-31T08:34:42;18.00;13.40
39401;DHT22;54391;50.000;7.360;2023-07-31T08:37:09;18.00;13.60
39401;DHT22;54391;50.000;7.360;2023-07-31T08:39:37;18.00;13.60
39401;DHT22;54391;50.000;7.360;2023-07-31T08:42:08;17.90;13.60
39401;DHT22;54391;50.000;7.360;2023-07-31T08:44:36;17.70;14.20
39401;DHT22;54391;50.000;7.360;2023-07-31T08:47:04;17.70;14.50
39401;DHT22;54391;50.000;7.360;2023-07-31T08:49:34;17.70;14.70
39401;DHT22;54391;50.000;7.360;2023-07-31T08:52:03;17.90;15.40
39401;DHT22;54391;50.000;7.360;2023-07-31T08:54:30;18.00;13.90
39401;DHT22;54391;50.000;7.360;2023-07-31T08:56:59;17.90;14.50
39401;DHT22;54391;50.000;7.360;2023-07-31T08:59:29;18.00;13.90
39401;DHT22;54391;50.000;7.360;2023-07-31T09:02:03;18.00;14.30
39401;DHT22;54391;50.000;7.360;2023-07-31T09:04:32;18.10;12.30
39401;DHT22;54391;50.000;7.360;2023-07-31T09:07:01;18.00;12.80
39401;DHT22;54391;50.000;7.360;2023-07-31T09:09:30;18.00;13.40
39401;DHT22;54391;50.000;7.360;2023-07-31T09:11:58;18.00;13.70
39401;DHT22;54391;50.000;7.360;2023-07-31T09:14:26;17.90;11.40
39401;DHT22;54391;50.000;7.360;2023-07-31T09:16:54;17.90;11.90
39401;DHT22;54391;50.000;7.360;2023-07-31T09:19:29;18.00;12.20
39401;DHT22;54391;50.000;7.360;2023-07-31T09:21:56;18.00;13.20
39401;DHT22;54391;50.000;7.360;2023-07-31T09:24:27;18.30;10.10
39401;DHT22;54391;50.000;7.360;2023-07-31T09:26:58;18.20;10.30
39401;DHT22;54391;50.000;7.360;2023-07-31T09:29:26;18.20;9.50
39401;DHT22;54391;50.000;7.360;2023-07-31T09:31:54;18.10;9.30
39401;DHT22;54391;50.000;7.360;2023-07-31T09:34:38;18.30;9.20
39401;DHT22;54391;50.000;7.360;2023-07-31T09:37:05;18.20;9.10
39401;DHT22;54391;50.000;7.360;2023-07-31T09:39:32;18.40;9.50
39401;DHT22;54391;50.000;7.360;2023-07-31T09:42:13;18.70;9.30
39401;DHT22;54391;50.000;7.360;2023-07-31T09:44:41;18.60;7.60
39401;DHT22;54391;50.000;7.360;2023-07-31T09:47:21;18.60;8.80
39401;DHT22;54391;50.000;7.360;2023-07-31T09:49:49;18.80;8.10
39401;DHT22;54391;50.000;7.360;2023-07-31T09:52:16;18.70;7.40
39401;DHT22;54391;50.000;7.360;2023-07-31T09:54:44;18.70;7.10
39401;DHT22;54391;50.000;7.360;2023-07-31T09:57:13;18.70;7.30
39401;DHT22;54391;50.000;7.360;2023-07-31T09:59:42;18.50;6.80
39401;DHT22;54391;50.000;7.360;2023-07-31T10:02:15;18.40;7.70
39401;DHT22;54391;50.000;7.360;2023-07-31T10:04:44;18.10;7.40
39401;DHT22;54391;50.000;7.360;2023-07-31T10:07:12;18.10;7.90
39401;DHT22;54391;50.000;7.360;2023-07-31T10:09:40;18.20;8.70
39401;DHT22;54391;50.000;7.360;2023-07-31T10:12:09;18.20;8.50
39401;DHT22;54391;50.000;7.360;2023-07-31T10:14:39;18.10;8.40
39401;DHT22;54391;50.000;7.360;2023-07-31T10:17:08;18.10;8.90
39401;DHT22;54391;50.000;7.360;2023-07-31T10:19:36;18.20;9.00
39401;DHT22;54391;50.000;7.360;2023-07-31T10:22:05;18.30;9.40
39401;DHT22;54391;50.000;7.360;2023-07-31T10:24:32;18.30;8.00
39401;DHT22;54391;50.000;7.360;2023-07-31T10:27:01;18.30;8.30
39401;DHT22;54391;50.000;7.360;2023-07-31T10:29:29;18.40;8.30
39401;DHT22;54391;50.000;7.360;2023-07-31T10:31:58;18.50;7.90
39401;DHT22;54391;50.000;7.360;2023-07-31T10:34:26;18.70;6.50
39401;DHT22;54391;50.000;7.360;2023-07-31T10:40:01;18.80;6.80
39401;DHT22;54391;50.000;7.360;2023-07-31T10:42:34;18.90;6.60
39401;DHT22;54391;50.000;7.360;2023-07-31T10:45:04;19.00;5.90
39401;DHT22;54391;50.000;7.360;2023-07-31T10:47:37;19.00;6.20
39401;DHT22;54391;50.000;7.360;2023-07-31T10:50:19;19.10;6.10
39401;DHT22;54391;50.000;7.360;2023-07-31T10:52:50;19.40;5.50
39401;DHT22;54391;50.000;7.360;2023-07-31T10:55:29;19.30;6.00
39401;DHT22;54391;50.000;7.360;2023-07-31T10:58:00;19.40;6.50
39401;DHT22;54391;50.000;7.360;2023-07-31T11:00:37;19.30;6.40
39401;DHT22;54391;50.000;7.360;2023-07-31T11:03:07;19.00;5.80
39401;DHT22;54391;50.000;7.360;2023-07-31T11:05:50;18.90;6.60
39401;DHT22;54391;50.000;7.360;2023-07-31T11:08:22;19.00;7.10
39401;DHT22;54391;50.000;7.360;2023-07-31T11:10:51;19.00;6.70
39401;DHT22;54391;50.000;7.360;2023-07-31T11:13:32;19.20;7.10
39401;DHT22;54391;50.000;7.360;2023-07-31T11:16:00;18.80;6.50
39401;DHT22;54391;50.000;7.360;2023-07-31T11:18:29;18.90;7.40
39401;DHT22;54391;50.000;7.360;2023-07-31T11:20:56;18.90;7.00
39401;DHT22;54391;50.000;7.360;2023-07-31T11:23:23;18.50;7.00
39401;DHT22;54391;50.000;7.360;2023-07-31T11:25:51;19.00;6.40
39401;DHT22;54391;50.000;7.360;2023-07-31T11:28:19;18.90;7.50
39401;DHT22;54391;50.000;7.360;2023-07-31T11:30:46;18.80;7.80
39401;DHT22;54391;50.000;7.360;2023-07-31T11:33:14;18.70;8.30
39401;DHT22;54391;50.000;7.360;2023-07-31T11:35:44;18.80;8.50
39401;DHT22;54391;50.000;7.360;2023-07-31T11:38:12;18.90;8.90
39401;DHT22;54391;50.000;7.360;2023-07-31T11:40:47;18.90;9.30
39401;DHT22;54391;50.000;7.360;2023-07-31T11:43:14;18.70;8.50
39401;DHT22;54391;50.000;7.360;2023-07-31T11:45:45;18.40;8.90
39401;DHT22;54391;50.000;7.360;2023-07-31T11:48:19;18.40;9.60
39401;DHT22;54391;50.000;7.360;2023-07-31T11:50:50;18.50;9.60
39401;DHT22;54391;50.000;7.360;2023-07-31T11:53:20;18.70;9.00
39401;DHT22;54391;50.000;7.360;2023-07-31T11:55:49;19.00;8.10
39401;DHT22;54391;50.000;7.360;2023-07-31T11:58:18;19.00;8.10
39401;DHT22;54391;50.000;7.360;2023-07-31T12:00:46;19.10;7.60
39401;DHT22;54391;50.000;7.360;2023-07-31T12:03:14;19.20;8.00
39401;DHT22;54391;50.000;7.360;2023-07-31T12:05:42;19.20;6.80
39401;DHT22;54391;50.000;7.360;2023-07-31T12:08:11;19.20;6.80
39401;DHT22;54391;50.000;7.360;2023-07-31T12:10:39;19.10;7.70
39401;DHT22;54391;50.000;7.360;2023-07-31T12:13:08;19.20;7.10
39401;DHT22;54391;50.000;7.360;2023-07-31T12:15:40;19.40;6.90
39401;DHT22;54391;50.000;7.360;2023-07-31T12:18:10;19.40;6.80
39401;DHT22;54391;50.000;7.360;2023-07-31T12:20:41;19.50;6.70
39401;DHT22;54391;50.000;7.360;2023-07-31T12:23:15;19.50;7.00
39401;DHT22;54391;50.000;7.360;2023-07-31T12:25:43;19.60;5.40
39401;DHT22;54391;50.000;7.360;2023-07-31T12:28:10;19.60;5.70
39401;DHT22;54391;50.000;7.360;2023-07-31T12:30:41;19.70;6.30
39401;DHT22;54391;50.000;7.360;2023-07-31T12:33:13;19.70;6.40
39401;DHT22;54391;50.000;7.360;2023-07-31T12:35:43;19.60;6.30
39401;DHT22;54391;50.000;7.360;2023-07-31T12:38:11;19.50;7.50
39401;DHT22;54391;50.000;7.360;2023-07-31T12:40:41;19.30;8.10
39401;DHT22;54391;50.000;7.360;2023-07-31T12:43:08;19.30;8.30
39401;DHT22;54391;50.000;7.360;2023-07-31T12:45:36;19.10;8.00
39401;DHT22;54391;50.000;7.360;2023-07-31T12:48:03;19.00;9.20
39401;DHT22;54391;50.000;7.360;2023-07-31T12:50:31;18.80;9.50
39401;DHT22;54391;50.000;7.360;2023-07-31T12:52:58;18.70;10.80
39401;DHT22;54391;50.000;7.360;2023-07-31T12:55:25;18.50;11.00
39401;DHT22;54391;50.000;7.360;2023-07-31T12:57:54;18.40;11.90
39401;DHT22;54391;50.000;7.360;2023-07-31T13:00:21;18.30;12.50
39401;DHT22;54391;50.000;7.360;2023-07-31T13:02:48;18.20;13.50
39401;DHT22;54391;50.000;7.360;2023-07-31T13:05:15;17.90;15.50
39401;DHT22;54391;50.000;7.360;2023-07-31T13:07:43;17.90;16.20
39401;DHT22;54391;50.000;7.360;2023-07-31T13:10:10;17.80;17.10
39401;DHT22;54391;50.000;7.360;2023-07-31T13:12:37;17.70;17.70
39401;DHT22;54391;50.000;7.360;2023-07-31T13:15:07;17.50;19.50
39401;DHT22;54391;50.000;7.360;2023-07-31T13:17:36;17.50;20.10
39401;DHT22;54391;50.000;7.360;2023-07-31T13:20:04;17.50;21.50
39401;DHT22;54391;50.000;7.360;2023-07-31T13:22:31;17.40;21.40
39401;DHT22;54391;50.000;7.360;2023-07-31T13:24:59;17.50;20.90
39401;DHT22;54391;50.000;7.360;2023-07-31T13:27:26;17.60;21.90
39401;DHT22;54391;50.000;7.360;2023-07-31T13:29:53;17.60;20.00
39401;DHT22;54391;50.000;7.360;2023-07-31T13:32:22;17.70;19.50
39401;DHT22;54391;50.000;7.360;2023-07-31T13:34:49;17.70;18.00
39401;DHT22;54391;50.000;7.360;2023-07-31T13:37:16;17.70;18.70
39401;DHT22;54391;50.000;7.360;2023-07-31T13:39:44;17.70;18.60
39401;DHT22;54391;50.000;7.360;2023-07-31T13:42:11;17.60;18.60
39401;DHT22;54391;50.000;7.360;2023-07-31T13:44:38;17.60;18.90
39401;DHT22;54391;50.000;7.360;2023-07-31T13:47:06;17.70;19.40
39401;DHT22;54391;50.000;7.360;2023-07-31T13:49:35;17.60;19.20
39401;DHT22;54391;50.000;7.360;2023-07-31T13:52:03;17.60;19.10
39401;DHT22;54391;50.000;7.360;2023-07-31T13:54:30;17.60;19.40
39401;DHT22;54391;50.000;7.360;2023-07-31T13:56:58;17.50;19.90
39401;DHT22;54391;50.000;7.360;2023-07-31T13:59:25;17.50;18.70
39401;DHT22;54391;50.000;7.360;2023-07-31T14:01:52;17.50;19.10
39401;DHT22;54391;50.000;7.360;2023-07-31T14:04:19;17.50;19.30
39401;DHT22;54391;50.000;7.360;2023-07-31T14:06:48;17.40;18.70
39401;DHT22;54391;50.000;7.360;2023-07-31T14:09:16;17.40;19.20
39401;DHT22;54391;50.000;7.360;2023-07-31T14:11:44;17.30;19.70
39401;DHT22;54391;50.000;7.360;2023-07-31T14:14:11;17.30;20.70
39401;DHT22;54391;50.000;7.360;2023-07-31T14:16:39;17.20;20.90
39401;DHT22;54391;50.000;7.360;2023-07-31T14:19:06;17.10;23.30
39401;DHT22;54391;50.000;7.360;2023-07-31T14:21:34;17.00;23.90
39401;DHT22;54391;50.000;7.360;2023-07-31T14:24:03;17.10;23.60
39401;DHT22;54391;50.000;7.360;2023-07-31T14:26:31;17.00;22.40
39401;DHT22;54391;50.000;7.360;2023-07-31T14:28:58;17.00;22.40
39401;DHT22;54391;50.000;7.360;2023-07-31T14:31:25;17.20;21.40
39401;DHT22;54391;50.000;7.360;2023-07-31T14:33:53;17.10;21.00
39401;DHT22;54391;50.000;7.360;2023-07-31T14:36:20;17.10;20.20
39401;DHT22;54391;50.000;7.360;2023-07-31T14:38:47;17.10;20.20
39401;DHT22;54391;50.000;7.360;2023-07-31T14:41:16;17.10;21.30
39401;DHT22;54391;50.000;7.360;2023-07-31T14:43:43;17.10;20.90
39401;DHT22;54391;50.000;7.360;2023-07-31T14:46:10;17.10;19.60
39401;DHT22;54391;50.000;7.360;2023-07-31T14:48:37;17.10;20.00
39401;DHT22;54391;50.000;7.360;2023-07-31T14:51:04;17.00;20.00
39401;DHT22;54391;50.000;7.360;2023-07-31T14:53:32;17.00;20.80
39401;DHT22;54391;50.000;7.360;2023-07-31T14:55:59;17.10;19.10
39401;DHT22;54391;50.000;7.360;2023-07-31T14:58:28;17.00;19.80
39401;DHT22;54391;50.000;7.360;2023-07-31T15:00:55;17.00;20.00
39401;DHT22;54391;50.000;7.360;2023-07-31T15:03:22;16.90;20.80
39401;DHT22;54391;50.000;7.360;2023-07-31T15:05:50;16.90;21.20
39401;DHT22;54391;50.000;7.360;2023-07-31T15:08:18;16.90;21.70
39401;DHT22;54391;50.000;7.360;2023-07-31T15:10:46;17.00;21.00
39401;DHT22;54391;50.000;7.360;2023-07-31T15:13:13;16.90;21.20
39401;DHT22;54391;50.000;7.360;2023-07-31T15:15:42;16.90;20.70
39401;DHT22;54391;50.000;7.360;2023-07-31T15:18:09;16.90;21.30
39401;DHT22;54391;50.000;7.360;2023-07-31T15:20:36;17.00;21.60
39401;DHT22;54391;50.000;7.360;2023-07-31T15:23:03;17.10;20.20
39401;DHT22;54391;50.000;7.360;2023-07-31T15:25:30;17.20;19.10
39401;DHT22;54391;50.000;7.360;2023-07-31T15:27:58;17.20;19.00
39401;DHT22;54391;50.000;7.360;2023-07-31T15:30:25;17.20;18.50
39401;DHT22;54391;50.000;7.360;2023-07-31T15:32:53;17.30;19.00
39401;DHT22;54391;50.000;7.360;2023-07-31T15:35:21;17.20;18.10
39401;DHT22;54391;50.000;7.360;2023-07-31T15:37:48;17.20;18.50
39401;DHT22;54391;50.000;7.360;2023-07-31T15:40:15;17.30;18.80
39401;DHT22;54391;50.000;7.360;2023-07-31T15:42:42;17.20;18.20
39401;DHT22;54391;50.000;7.360;2023-07-31T15:45:10;17.10;18.80
39401;DHT22;54391;50.000;7.360;2023-07-31T15:47:37;17.10;19.20